sensor_id;sensor_type;location;lat;lon;timestamp;P1;durP1;ratioP1;P2;durP2;ratioP2
73239;SDS011;61452;40.054;4.110;2023-09-19T00:02:06;5.40;;;2.95;;
73239;SDS011;61452;40.054;4.110;2023-09-19T00:07:08;6.50;;;2.83;;
73239;SDS011;61452;40.054;4.110;2023-09-19T00:12:10;4.05;;;2.60;;
73239;SDS011;61452;40.054;4.110;2023-09-19T00:17:15;6.10;;;3.28;;
73239;SDS011;61452;40.054;4.110;2023-09-19T00:22:18;4.47;;;2.67;;
73239;SDS011;61452;40.054;4.110;2023-09-19T00:27:20;6.63;;;3.00;;
73239;SDS011;61452;40.054;4.110;2023-09-19T00:32:24;5.93;;;3.35;;
73239;SDS011;61452;40.054;4.110;2023-09-19T00:37:26;4.25;;;2.50;;
73239;SDS011;61452;40.054;4.110;2023-09-19T00:42:28;6.70;;;2.90;;
73239;SDS011;61452;40.054;4.110;2023-09-19T00:47:31;4.60;;;2.70;;
73239;SDS011;61452;40.054;4.110;2023-09-19T00:52:34;5.13;;;3.03;;
73239;SDS011;61452;40.054;4.110;2023-09-19T00:57:41;5.75;;;3.03;;
73239;SDS011;61452;40.054;4.110;2023-09-19T01:02:45;5.53;;;3.15;;
73239;SDS011;61452;40.054;4.110;2023-09-19T01:07:48;6.65;;;3.33;;
73239;SDS011;61452;40.054;4.110;2023-09-19T01:29:23;6.47;;;3.42;;
73239;SDS011;61452;40.054;4.110;2023-09-19T01:39:55;6.25;;;3.10;;
73239;SDS011;61452;40.054;4.110;2023-09-19T01:45:23;5.68;;;2.50;;
73239;SDS011;61452;40.054;4.110;2023-09-19T01:50:41;5.35;;;2.50;;
73239;SDS011;61452;40.054;4.110;2023-09-19T01:55:46;5.05;;;2.65;;
73239;SDS011;61452;40.054;4.110;2023-09-19T02:00:51;5.03;;;2.95;;
73239;SDS011;61452;40.054;4.110;2023-09-19T02:05:54;4.47;;;3.05;;
73239;SDS011;61452;40.054;4.110;2023-09-19T02:10:57;5.50;;;2.60;;
73239;SDS011;61452;40.054;4.110;2023-09-19T02:15:59;7.88;;;2.60;;
73239;SDS011;61452;40.054;4.110;2023-09-19T02:21:02;4.20;;;2.40;;
73239;SDS011;61452;40.054;4.110;2023-09-19T02:26:05;5.85;;;2.15;;
73239;SDS011;61452;40.054;4.110;2023-09-19T02:31:07;7.93;;;2.35;;
73239;SDS011;61452;40.054;4.110;2023-09-19T02:36:10;3.40;;;2.17;;
73239;SDS011;61452;40.054;4.110;2023-09-19T02:41:12;5.25;;;2.33;;
73239;SDS011;61452;40.054;4.110;2023-09-19T02:46:14;6.93;;;2.60;;
73239;SDS011;61452;40.054;4.110;2023-09-19T02:51:19;4.68;;;2.17;;
73239;SDS011;61452;40.054;4.110;2023-09-19T02:56:22;4.75;;;2.00;;
73239;SDS011;61452;40.054;4.110;2023-09-19T03:01:26;5.22;;;2.10;;
73239;SDS011;61452;40.054;4.110;2023-09-19T03:06:30;3.97;;;2.30;;
73239;SDS011;61452;40.054;4.110;2023-09-19T03:11:33;3.97;;;2.33;;
73239;SDS011;61452;40.054;4.110;2023-09-19T03:16:35;4.90;;;2.30;;
73239;SDS011;61452;40.054;4.110;2023-09-19T03:21:39;3.60;;;2.58;;
73239;SDS011;61452;40.054;4.110;2023-09-19T03:26:41;3.10;;;1.80;;
73239;SDS011;61452;40.054;4.110;2023-09-19T03:31:45;6.90;;;2.10;;
73239;SDS011;61452;40.054;4.110;2023-09-19T03:36:47;4.70;;;2.13;;
73239;SDS011;61452;40.054;4.110;2023-09-19T03:41:50;5.53;;;2.03;;
73239;SDS011;61452;40.054;4.110;2023-09-19T03:46:52;5.82;;;2.10;;
73239;SDS011;61452;40.054;4.110;2023-09-19T03:51:55;5.35;;;2.15;;
73239;SDS011;61452;40.054;4.110;2023-09-19T03:56:57;4.10;;;2.08;;
73239;SDS011;61452;40.054;4.110;2023-09-19T04:02:00;4.75;;;2.20;;
73239;SDS011;61452;40.054;4.110;2023-09-19T04:07:02;5.50;;;1.80;;
73239;SDS011;61452;40.054;4.110;2023-09-19T04:12:05;4.45;;;1.90;;
73239;SDS011;61452;40.054;4.110;2023-09-19T04:17:07;5.57;;;2.20;;
73239;SDS011;61452;40.054;4.110;2023-09-19T04:22:12;3.95;;;1.95;;
73239;SDS011;61452;40.054;4.110;2023-09-19T04:27:15;4.00;;;1.63;;
73239;SDS011;61452;40.054;4.110;2023-09-19T04:32:17;5.75;;;1.77;;
73239;SDS011;61452;40.054;4.110;2023-09-19T04:37:19;4.20;;;2.15;;
73239;SDS011;61452;40.054;4.110;2023-09-19T04:42:22;5.15;;;1.45;;
73239;SDS011;61452;40.054;4.110;2023-09-19T04:47:26;6.90;;;1.48;;
73239;SDS011;61452;40.054;4.110;2023-09-19T04:52:30;4.47;;;1.73;;
73239;SDS011;61452;40.054;4.110;2023-09-19T04:57:33;5.00;;;1.75;;
73239;SDS011;61452;40.054;4.110;2023-09-19T05:02:35;4.78;;;1.60;;
73239;SDS011;61452;40.054;4.110;2023-09-19T05:07:41;5.18;;;1.98;;
73239;SDS011;61452;40.054;4.110;2023-09-19T05:12:44;3.75;;;1.63;;
73239;SDS011;61452;40.054;4.110;2023-09-19T05:17:50;5.03;;;1.52;;
73239;SDS011;61452;40.054;4.110;2023-09-19T05:23:05;4.88;;;1.85;;
73239;SDS011;61452;40.054;4.110;2023-09-19T05:28:11;3.65;;;1.63;;
73239;SDS011;61452;40.054;4.110;2023-09-19T05:33:16;6.13;;;1.63;;
73239;SDS011;61452;40.054;4.110;2023-09-19T05:38:20;6.57;;;1.73;;
73239;SDS011;61452;40.054;4.110;2023-09-19T05:43:22;5.60;;;1.65;;
73239;SDS011;61452;40.054;4.110;2023-09-19T05:48:25;4.60;;;1.80;;
73239;SDS011;61452;40.054;4.110;2023-09-19T05:53:27;3.80;;;1.50;;
73239;SDS011;61452;40.054;4.110;2023-09-19T05:58:31;4.95;;;1.63;;
73239;SDS011;61452;40.054;4.110;2023-09-19T06:03:34;5.55;;;1.98;;
73239;SDS011;61452;40.054;4.110;2023-09-19T06:08:37;3.75;;;1.40;;
73239;SDS011;61452;40.054;4.110;2023-09-19T06:13:40;4.93;;;1.42;;
73239;SDS011;61452;40.054;4.110;2023-09-19T06:18:42;2.45;;;1.10;;
73239;SDS011;61452;40.054;4.110;2023-09-19T06:23:45;6.15;;;1.85;;
73239;SDS011;61452;40.054;4.110;2023-09-19T06:28:47;4.05;;;1.50;;
73239;SDS011;61452;40.054;4.110;2023-09-19T06:33:50;4.10;;;1.25;;
73239;SDS011;61452;40.054;4.110;2023-09-19T06:38:52;7.75;;;1.65;;
73239;SDS011;61452;40.054;4.110;2023-09-19T06:43:54;5.25;;;1.75;;
73239;SDS011;61452;40.054;4.110;2023-09-19T06:48:57;7.07;;;1.50;;
73239;SDS011;61452;40.054;4.110;2023-09-19T06:53:59;7.03;;;1.85;;
73239;SDS011;61452;40.054;4.110;2023-09-19T06:59:01;8.57;;;1.92;;
73239;SDS011;61452;40.054;4.110;2023-09-19T07:04:05;6.38;;;1.50;;
73239;SDS011;61452;40.054;4.110;2023-09-19T07:09:07;6.28;;;1.75;;
73239;SDS011;61452;40.054;4.110;2023-09-19T07:14:10;5.22;;;1.58;;
73239;SDS011;61452;40.054;4.110;2023-09-19T07:19:13;6.22;;;1.45;;
73239;SDS011;61452;40.054;4.110;2023-09-19T07:24:17;7.00;;;1.70;;
73239;SDS011;61452;40.054;4.110;2023-09-19T07:29:19;6.35;;;1.50;;
73239;SDS011;61452;40.054;4.110;2023-09-19T07:34:22;4.35;;;1.42;;
73239;SDS011;61452;40.054;4.110;2023-09-19T07:39:26;4.72;;;1.40;;
73239;SDS011;61452;40.054;4.110;2023-09-19T07:44:28;7.47;;;1.50;;
73239;SDS011;61452;40.054;4.110;2023-09-19T07:49:30;6.18;;;1.40;;
73239;SDS011;61452;40.054;4.110;2023-09-19T07:54:33;6.05;;;1.38;;
73239;SDS011;61452;40.054;4.110;2023-09-19T07:59:37;5.05;;;1.70;;
73239;SDS011;61452;40.054;4.110;2023-09-19T08:14:50;6.15;;;1.40;;
73239;SDS011;61452;40.054;4.110;2023-09-19T08:19:52;4.40;;;1.30;;
73239;SDS011;61452;40.054;4.110;2023-09-19T08:24:55;5.93;;;1.60;;
73239;SDS011;61452;40.054;4.110;2023-09-19T08:29:58;6.93;;;1.48;;
73239;SDS011;61452;40.054;4.110;2023-09-19T08:35:00;9.27;;;1.80;;
73239;SDS011;61452;40.054;4.110;2023-09-19T08:40:02;5.88;;;1.67;;
73239;SDS011;61452;40.054;4.110;2023-09-19T08:45:05;7.35;;;1.80;;
73239;SDS011;61452;40.054;4.110;2023-09-19T08:50:19;10.52;;;1.90;;
73239;SDS011;61452;40.054;4.110;2023-09-19T08:55:31;7.40;;;1.70;;
73239;SDS011;61452;40.054;4.110;2023-09-19T09:00:35;9.25;;;1.90;;
73239;SDS011;61452;40.054;4.110;2023-09-19T09:05:38;6.50;;;1.83;;
73239;SDS011;61452;40.054;4.110;2023-09-19T09:10:45;5.78;;;1.83;;
73239;SDS011;61452;40.054;4.110;2023-09-19T09:15:47;7.25;;;1.75;;
73239;SDS011;61452;40.054;4.110;2023-09-19T09:20:50;7.97;;;1.70;;
73239;SDS011;61452;40.054;4.110;2023-09-19T09:25:53;11.85;;;2.65;;
73239;SDS011;61452;40.054;4.110;2023-09-19T09:31:01;6.70;;;1.98;;
73239;SDS011;61452;40.054;4.110;2023-09-19T09:36:10;5.72;;;1.55;;
73239;SDS011;61452;40.054;4.110;2023-09-19T09:41:15;6.38;;;2.10;;
73239;SDS011;61452;40.054;4.110;2023-09-19T09:46:29;7.97;;;2.10;;
73239;SDS011;61452;40.054;4.110;2023-09-19T09:52:01;3.92;;;1.23;;
73239;SDS011;61452;40.054;4.110;2023-09-19T09:57:12;6.45;;;1.80;;
73239;SDS011;61452;40.054;4.110;2023-09-19T10:02:29;7.63;;;2.22;;
73239;SDS011;61452;40.054;4.110;2023-09-19T10:07:38;7.70;;;2.33;;
73239;SDS011;61452;40.054;4.110;2023-09-19T10:12:46;7.82;;;2.67;;
73239;SDS011;61452;40.054;4.110;2023-09-19T10:17:50;6.78;;;2.00;;
73239;SDS011;61452;40.054;4.110;2023-09-19T10:22:56;6.10;;;1.63;;
73239;SDS011;61452;40.054;4.110;2023-09-19T10:28:00;8.02;;;1.67;;
73239;SDS011;61452;40.054;4.110;2023-09-19T10:33:11;8.13;;;1.70;;
73239;SDS011;61452;40.054;4.110;2023-09-19T10:38:17;8.57;;;1.77;;
73239;SDS011;61452;40.054;4.110;2023-09-19T10:43:25;10.82;;;2.25;;
73239;SDS011;61452;40.054;4.110;2023-09-19T10:48:36;10.35;;;2.45;;
73239;SDS011;61452;40.054;4.110;2023-09-19T10:53:48;9.93;;;2.22;;
73239;SDS011;61452;40.054;4.110;2023-09-19T10:59:12;10.70;;;2.15;;
73239;SDS011;61452;40.054;4.110;2023-09-19T11:04:27;10.88;;;2.25;;
73239;SDS011;61452;40.054;4.110;2023-09-19T11:09:53;6.03;;;1.67;;
73239;SDS011;61452;40.054;4.110;2023-09-19T11:14:56;9.25;;;2.30;;
73239;SDS011;61452;40.054;4.110;2023-09-19T11:46:23;8.05;;;2.22;;
73239;SDS011;61452;40.054;4.110;2023-09-19T11:51:26;9.27;;;2.35;;
73239;SDS011;61452;40.054;4.110;2023-09-19T11:56:29;7.97;;;1.80;;
73239;SDS011;61452;40.054;4.110;2023-09-19T12:01:33;6.72;;;2.10;;
73239;SDS011;61452;40.054;4.110;2023-09-19T12:06:37;10.07;;;2.45;;
73239;SDS011;61452;40.054;4.110;2023-09-19T12:11:44;10.75;;;2.88;;
73239;SDS011;61452;40.054;4.110;2023-09-19T12:16:53;8.30;;;2.05;;
73239;SDS011;61452;40.054;4.110;2023-09-19T12:22:01;8.90;;;2.25;;
73239;SDS011;61452;40.054;4.110;2023-09-19T12:27:08;7.60;;;2.30;;
73239;SDS011;61452;40.054;4.110;2023-09-19T12:32:11;7.82;;;2.17;;
73239;SDS011;61452;40.054;4.110;2023-09-19T12:37:14;9.10;;;1.90;;
73239;SDS011;61452;40.054;4.110;2023-09-19T12:42:23;7.93;;;2.13;;
73239;SDS011;61452;40.054;4.110;2023-09-19T12:47:30;8.23;;;2.10;;
73239;SDS011;61452;40.054;4.110;2023-09-19T12:52:36;8.95;;;2.50;;
73239;SDS011;61452;40.054;4.110;2023-09-19T12:57:40;9.10;;;2.28;;
73239;SDS011;61452;40.054;4.110;2023-09-19T13:09:07;10.73;;;2.70;;
73239;SDS011;61452;40.054;4.110;2023-09-19T13:19:34;8.07;;;2.10;;
73239;SDS011;61452;40.054;4.110;2023-09-19T13:24:41;6.53;;;2.40;;
73239;SDS011;61452;40.054;4.110;2023-09-19T13:29:44;7.38;;;2.22;;
73239;SDS011;61452;40.054;4.110;2023-09-19T13:34:46;11.10;;;2.55;;
73239;SDS011;61452;40.054;4.110;2023-09-19T13:39:49;9.98;;;2.63;;
73239;SDS011;61452;40.054;4.110;2023-09-19T13:44:51;8.10;;;2.15;;
73239;SDS011;61452;40.054;4.110;2023-09-19T13:49:54;8.80;;;2.38;;
73239;SDS011;61452;40.054;4.110;2023-09-19T13:54:57;7.85;;;2.20;;
73239;SDS011;61452;40.054;4.110;2023-09-19T14:00:00;8.63;;;2.25;;
73239;SDS011;61452;40.054;4.110;2023-09-19T14:05:12;11.50;;;2.75;;
73239;SDS011;61452;40.054;4.110;2023-09-19T14:10:16;8.98;;;2.35;;
73239;SDS011;61452;40.054;4.110;2023-09-19T14:15:19;11.82;;;2.15;;
73239;SDS011;61452;40.054;4.110;2023-09-19T14:20:21;8.52;;;1.98;;
73239;SDS011;61452;40.054;4.110;2023-09-19T14:25:24;10.52;;;2.35;;
73239;SDS011;61452;40.054;4.110;2023-09-19T14:30:27;7.15;;;2.05;;
73239;SDS011;61452;40.054;4.110;2023-09-19T14:35:29;8.05;;;2.08;;
73239;SDS011;61452;40.054;4.110;2023-09-19T14:40:32;6.57;;;2.00;;
73239;SDS011;61452;40.054;4.110;2023-09-19T14:45:35;9.00;;;2.72;;
73239;SDS011;61452;40.054;4.110;2023-09-19T14:50:38;7.97;;;1.83;;
73239;SDS011;61452;40.054;4.110;2023-09-19T14:55:40;8.95;;;1.80;;
73239;SDS011;61452;40.054;4.110;2023-09-19T15:00:46;7.40;;;2.05;;
73239;SDS011;61452;40.054;4.110;2023-09-19T15:05:48;8.15;;;2.35;;
73239;SDS011;61452;40.054;4.110;2023-09-19T15:10:51;8.35;;;2.38;;
73239;SDS011;61452;40.054;4.110;2023-09-19T15:15:58;8.10;;;2.13;;
73239;SDS011;61452;40.054;4.110;2023-09-19T15:21:03;10.18;;;3.40;;
73239;SDS011;61452;40.054;4.110;2023-09-19T15:26:07;7.80;;;2.30;;
73239;SDS011;61452;40.054;4.110;2023-09-19T15:31:13;11.30;;;2.63;;
73239;SDS011;61452;40.054;4.110;2023-09-19T15:36:16;9.50;;;1.95;;
73239;SDS011;61452;40.054;4.110;2023-09-19T15:41:20;7.05;;;2.17;;
73239;SDS011;61452;40.054;4.110;2023-09-19T15:46:25;8.55;;;2.20;;
73239;SDS011;61452;40.054;4.110;2023-09-19T15:51:31;6.88;;;1.80;;
73239;SDS011;61452;40.054;4.110;2023-09-19T15:56:33;8.30;;;2.10;;
73239;SDS011;61452;40.054;4.110;2023-09-19T16:01:39;7.03;;;1.90;;
73239;SDS011;61452;40.054;4.110;2023-09-19T16:06:45;5.47;;;1.70;;
73239;SDS011;61452;40.054;4.110;2023-09-19T16:11:48;6.35;;;1.90;;
73239;SDS011;61452;40.054;4.110;2023-09-19T16:16:50;6.90;;;1.73;;
73239;SDS011;61452;40.054;4.110;2023-09-19T16:21:53;9.30;;;2.30;;
73239;SDS011;61452;40.054;4.110;2023-09-19T16:26:55;8.02;;;2.05;;
73239;SDS011;61452;40.054;4.110;2023-09-19T16:31:58;6.07;;;2.20;;
73239;SDS011;61452;40.054;4.110;2023-09-19T16:37:00;7.07;;;2.17;;
73239;SDS011;61452;40.054;4.110;2023-09-19T16:42:04;5.93;;;1.60;;
73239;SDS011;61452;40.054;4.110;2023-09-19T16:47:23;5.88;;;1.52;;
73239;SDS011;61452;40.054;4.110;2023-09-19T16:52:26;8.05;;;1.90;;
73239;SDS011;61452;40.054;4.110;2023-09-19T16:57:28;6.05;;;1.58;;
73239;SDS011;61452;40.054;4.110;2023-09-19T17:02:30;6.50;;;1.95;;
73239;SDS011;61452;40.054;4.110;2023-09-19T17:07:33;6.28;;;1.60;;
73239;SDS011;61452;40.054;4.110;2023-09-19T17:12:35;5.18;;;1.60;;
73239;SDS011;61452;40.054;4.110;2023-09-19T17:17:37;5.65;;;2.10;;
73239;SDS011;61452;40.054;4.110;2023-09-19T17:22:40;7.38;;;2.00;;
73239;SDS011;61452;40.054;4.110;2023-09-19T17:27:42;4.72;;;1.15;;
73239;SDS011;61452;40.054;4.110;2023-09-19T17:32:45;6.55;;;1.85;;
73239;SDS011;61452;40.054;4.110;2023-09-19T17:37:47;5.97;;;1.80;;
73239;SDS011;61452;40.054;4.110;2023-09-19T17:42:49;4.57;;;1.60;;
73239;SDS011;61452;40.054;4.110;2023-09-19T17:47:52;4.55;;;1.70;;
73239;SDS011;61452;40.054;4.110;2023-09-19T17:52:54;4.93;;;1.38;;
73239;SDS011;61452;40.054;4.110;2023-09-19T17:57:58;3.15;;;1.23;;
73239;SDS011;61452;40.054;4.110;2023-09-19T18:03:03;5.30;;;1.38;;
73239;SDS011;61452;40.054;4.110;2023-09-19T18:08:06;4.50;;;1.55;;
73239;SDS011;61452;40.054;4.110;2023-09-19T18:13:08;5.10;;;1.45;;
73239;SDS011;61452;40.054;4.110;2023-09-19T18:18:12;5.32;;;2.10;;
73239;SDS011;61452;40.054;4.110;2023-09-19T18:23:14;6.95;;;1.95;;
73239;SDS011;61452;40.054;4.110;2023-09-19T18:28:17;3.03;;;1.55;;
73239;SDS011;61452;40.054;4.110;2023-09-19T18:33:19;3.47;;;1.55;;
73239;SDS011;61452;40.054;4.110;2023-09-19T18:38:22;5.00;;;1.77;;
73239;SDS011;61452;40.054;4.110;2023-09-19T18:43:27;6.05;;;1.85;;
73239;SDS011;61452;40.054;4.110;2023-09-19T18:48:29;5.72;;;2.22;;
73239;SDS011;61452;40.054;4.110;2023-09-19T18:53:32;4.93;;;1.80;;
73239;SDS011;61452;40.054;4.110;2023-09-19T18:58:35;4.82;;;1.48;;
73239;SDS011;61452;40.054;4.110;2023-09-19T19:03:38;5.00;;;2.00;;
73239;SDS011;61452;40.054;4.110;2023-09-19T19:08:44;5.15;;;1.65;;
73239;SDS011;61452;40.054;4.110;2023-09-19T19:13:47;3.75;;;1.83;;
73239;SDS011;61452;40.054;4.110;2023-09-19T19:18:53;6.10;;;1.77;;
73239;SDS011;61452;40.054;4.110;2023-09-19T19:23:55;4.50;;;1.58;;
73239;SDS011;61452;40.054;4.110;2023-09-19T19:28:58;3.45;;;1.60;;
73239;SDS011;61452;40.054;4.110;2023-09-19T19:34:00;4.35;;;1.30;;
73239;SDS011;61452;40.054;4.110;2023-09-19T19:39:02;4.75;;;1.42;;
73239;SDS011;61452;40.054;4.110;2023-09-19T19:44:07;6.32;;;1.80;;
73239;SDS011;61452;40.054;4.110;2023-09-19T19:49:10;3.65;;;1.40;;
73239;SDS011;61452;40.054;4.110;2023-09-19T19:54:13;4.53;;;1.33;;
73239;SDS011;61452;40.054;4.110;2023-09-19T19:59:15;4.97;;;1.58;;
73239;SDS011;61452;40.054;4.110;2023-09-19T20:04:19;5.90;;;1.80;;
73239;SDS011;61452;40.054;4.110;2023-09-19T20:09:22;4.53;;;1.13;;
73239;SDS011;61452;40.054;4.110;2023-09-19T20:14:24;7.15;;;1.90;;
73239;SDS011;61452;40.054;4.110;2023-09-19T20:19:26;4.13;;;1.20;;
73239;SDS011;61452;40.054;4.110;2023-09-19T20:24:34;4.15;;;1.20;;
73239;SDS011;61452;40.054;4.110;2023-09-19T20:29:39;3.15;;;1.13;;
73239;SDS011;61452;40.054;4.110;2023-09-19T20:34:41;2.55;;;1.10;;
73239;SDS011;61452;40.054;4.110;2023-09-19T20:39:44;3.75;;;1.30;;
73239;SDS011;61452;40.054;4.110;2023-09-19T20:44:46;5.63;;;1.27;;
73239;SDS011;61452;40.054;4.110;2023-09-19T20:49:48;6.22;;;1.17;;
73239;SDS011;61452;40.054;4.110;2023-09-19T20:54:51;3.78;;;1.00;;
73239;SDS011;61452;40.054;4.110;2023-09-19T20:59:53;4.85;;;1.40;;
73239;SDS011;61452;40.054;4.110;2023-09-19T21:04:55;4.22;;;1.27;;
73239;SDS011;61452;40.054;4.110;2023-09-19T21:09:58;4.15;;;1.13;;
73239;SDS011;61452;40.054;4.110;2023-09-19T21:15:02;3.78;;;1.40;;
73239;SDS011;61452;40.054;4.110;2023-09-19T21:20:06;4.57;;;1.25;;
73239;SDS011;61452;40.054;4.110;2023-09-19T21:25:10;3.63;;;1.38;;
73239;SDS011;61452;40.054;4.110;2023-09-19T21:35:16;5.10;;;1.45;;
73239;SDS011;61452;40.054;4.110;2023-09-19T21:40:19;8.13;;;2.08;;
73239;SDS011;61452;40.054;4.110;2023-09-19T21:45:22;4.95;;;1.30;;
73239;SDS011;61452;40.054;4.110;2023-09-19T21:50:24;3.80;;;1.40;;
73239;SDS011;61452;40.054;4.110;2023-09-19T21:55:27;4.45;;;1.10;;
73239;SDS011;61452;40.054;4.110;2023-09-19T22:00:30;7.90;;;1.42;;
73239;SDS011;61452;40.054;4.110;2023-09-19T22:05:45;5.97;;;1.52;;
73239;SDS011;61452;40.054;4.110;2023-09-19T22:10:47;2.42;;;1.10;;
73239;SDS011;61452;40.054;4.110;2023-09-19T22:15:54;5.68;;;1.50;;
73239;SDS011;61452;40.054;4.110;2023-09-19T22:20:58;5.95;;;1.48;;
73239;SDS011;61452;40.054;4.110;2023-09-19T22:26:16;4.55;;;1.67;;
73239;SDS011;61452;40.054;4.110;2023-09-19T22:31:26;5.28;;;1.27;;
73239;SDS011;61452;40.054;4.110;2023-09-19T22:36:35;3.08;;;1.48;;
73239;SDS011;61452;40.054;4.110;2023-09-19T22:41:50;4.55;;;1.30;;
73239;SDS011;61452;40.054;4.110;2023-09-19T22:46:55;4.55;;;1.42;;
73239;SDS011;61452;40.054;4.110;2023-09-19T22:51:59;4.75;;;1.50;;
73239;SDS011;61452;40.054;4.110;2023-09-19T22:57:01;5.78;;;1.38;;
73239;SDS011;61452;40.054;4.110;2023-09-19T23:02:04;3.40;;;1.23;;
73239;SDS011;61452;40.054;4.110;2023-09-19T23:07:07;5.47;;;1.50;;
73239;SDS011;61452;40.054;4.110;2023-09-19T23:12:13;4.00;;;1.30;;
73239;SDS011;61452;40.054;4.110;2023-09-19T23:17:21;6.32;;;1.42;;
73239;SDS011;61452;40.054;4.110;2023-09-19T23:22:24;8.18;;;1.48;;
73239;SDS011;61452;40.054;4.110;2023-09-19T23:27:29;5.28;;;1.30;;
73239;SDS011;61452;40.054;4.110;2023-09-19T23:32:37;6.22;;;1.45;;
73239;SDS011;61452;40.054;4.110;2023-09-19T23:37:40;5.07;;;2.10;;
73239;SDS011;61452;40.054;4.110;2023-09-19T23:42:42;6.57;;;1.63;;
73239;SDS011;61452;40.054;4.110;2023-09-19T23:47:46;5.78;;;1.67;;
73239;SDS011;61452;40.054;4.110;2023-09-19T23:52:49;3.58;;;1.20;;
73239;SDS011;61452;40.054;4.110;2023-09-19T23:57:52;3.35;;;1.15;;
